Weather History for Bentonville, AR

Change the Weather History Date:

Friday, February 22, 2013

  Actual Average Record
Temperature  
Mean Temperature 29 °F -  
Max Temperature 37 °F 53 °F 72 °F (1982)
Min Temperature 21 °F 29 °F 7 °F (1963)
Degree Days  
Heating Degree Days 36    
Moisture  
Dew Point 20 °F    
Average Humidity 68    
Maximum Humidity 86    
Minimum Humidity 52    
Precipitation  
Precipitation 0.01 in - - ()
Sea Level Pressure  
Sea Level Pressure 30.00 in    
Wind  
Wind Speed 10 mph (WNW)    
Max Wind Speed 16 mph    
Max Gust Speed 23 mph    
Visibility 10 miles    
Events      
Averages and records for this station are not official NWS values.
T = Trace of Precipitation, MM = Missing Value Source: NWS Daily Summary

Daily Weather History Graph

Daily Weather History Graph

Search for Another Location

Airport:

Trip Planner

Search our weather history database for the weather conditions in past years. The results will help you decide how hot, cold, wet, or windy it might be!

Date:

Astronomy

Feb. 22, 2013 Rise Set
Actual Time 6:55 AM CST 6:05 PM CST
Civil Twilight 6:29 AM CST 6:31 PM CST
Nautical Twilight 6:00 AM CST 7:01 PM CST
Astronomical Twilight 5:30 AM CST 7:31 PM CST
Moon 3:20 PM CST (2/22) 4:38 AM CST (2/22)
Length of Visible Light 12h 01m
Length of Day
11h 09m
Waxing Gibbous, 90% of the Moon is Illuminated
Feb 22
Waxing Gibbous
Feb 25
Full
Mar 4
Last Quarter
Mar 11
New
Mar 19
First Quarter

Hourly Weather History & Observations

Time (CST) Temp. Windchill Dew Point Humidity Pressure Visibility Wind Dir Wind Speed Gust Speed Precip Events Conditions
12:15 AM 35.6 °F 27.5 °F 28.4 °F 75% 29.85 in 10.0 mi WSW 11.5 mph - N/A   Overcast
12:55 AM 35.6 °F 26.6 °F 28.4 °F 75% 29.85 in 10.0 mi West 13.8 mph 19.6 mph N/A   Overcast
1:15 AM 33.8 °F 23.5 °F 28.4 °F 81% 29.87 in 9.0 mi West 16.1 mph 21.9 mph N/A   Overcast
1:35 AM 33.8 °F 25.3 °F 26.6 °F 75% 29.88 in 10.0 mi West 11.5 mph 19.6 mph N/A   Overcast
1:55 AM 30.2 °F 19.3 °F 24.8 °F 80% 29.89 in 10.0 mi West 15.0 mph 23.0 mph N/A   Overcast
2:15 AM 30.2 °F 19.8 °F 24.8 °F 80% 29.89 in 10.0 mi West 13.8 mph - N/A   Overcast
2:55 AM 26.6 °F 15.2 °F 21.2 °F 80% 29.89 in 10.0 mi West 13.8 mph 21.9 mph N/A   Scattered Clouds
3:15 AM 26.6 °F 14.7 °F 17.6 °F 69% 29.87 in 10.0 mi WNW 15.0 mph - N/A   Partly Cloudy
3:35 AM 24.8 °F 12.4 °F 17.6 °F 74% 29.89 in 10.0 mi West 15.0 mph 20.7 mph N/A   Clear
3:55 AM 24.8 °F 14.6 °F 17.6 °F 74% 29.89 in 10.0 mi West 10.4 mph 18.4 mph N/A   Clear
4:15 AM 24.8 °F 13.4 °F 15.8 °F 69% 29.90 in 10.0 mi West 12.7 mph - N/A   Clear
4:35 AM 24.8 °F 14.6 °F 15.8 °F 69% 29.90 in 10.0 mi West 10.4 mph - N/A   Clear
4:55 AM 24.8 °F 15.3 °F 15.8 °F 69% 29.90 in 10.0 mi West 9.2 mph - N/A   Clear
5:15 AM 23.0 °F 13.1 °F 15.8 °F 74% 29.92 in 10.0 mi West 9.2 mph - N/A   Clear
5:35 AM 23.0 °F 13.1 °F 15.8 °F 74% 29.94 in 10.0 mi West 9.2 mph - N/A   Clear
5:55 AM 23.0 °F 12.4 °F 15.8 °F 74% 29.95 in 10.0 mi West 10.4 mph - N/A   Clear
6:15 AM 23.0 °F 13.1 °F 15.8 °F 74% 29.96 in 10.0 mi West 9.2 mph - N/A   Clear
6:35 AM 21.2 °F 12.6 °F 15.8 °F 80% 29.96 in 10.0 mi West 6.9 mph - N/A   Clear
6:55 AM 21.2 °F 11.7 °F 15.8 °F 80% 29.96 in 10.0 mi WNW 8.1 mph - N/A   Clear
7:15 AM 21.2 °F 10.9 °F 17.6 °F 86% 29.98 in 10.0 mi West 9.2 mph - N/A   Clear
7:35 AM 23.0 °F 14.7 °F 17.6 °F 80% 29.99 in 10.0 mi WNW 6.9 mph - N/A   Clear
7:55 AM 23.0 °F 13.1 °F 17.6 °F 80% 29.99 in 10.0 mi West 9.2 mph - N/A   Partly Cloudy
8:15 AM 23.0 °F 13.1 °F 17.6 °F 80% 30.00 in 10.0 mi West 9.2 mph - N/A   Mostly Cloudy
8:35 AM 24.8 °F 14.6 °F 17.6 °F 74% 30.02 in 10.0 mi WNW 10.4 mph - N/A   Overcast
8:55 AM 24.8 °F 16.1 °F 17.6 °F 74% 30.03 in 10.0 mi West 8.1 mph - N/A   Overcast
9:15 AM 24.8 °F 16.9 °F 17.6 °F 74% 30.04 in 10.0 mi West 6.9 mph - N/A   Overcast
9:35 AM 24.8 °F 14.6 °F 17.6 °F 74% 30.05 in 10.0 mi West 10.4 mph - N/A   Overcast
9:55 AM 26.6 °F 16.8 °F 17.6 °F 69% 30.06 in 10.0 mi West 10.4 mph - N/A   Overcast
10:15 AM 26.6 °F 16.8 °F 19.4 °F 74% 30.06 in 10.0 mi WNW 10.4 mph - N/A   Mostly Cloudy
10:35 AM 26.6 °F 19.1 °F 17.6 °F 69% 30.06 in 10.0 mi WNW 6.9 mph - N/A   Mostly Cloudy
10:55 AM 28.4 °F 19.7 °F 19.4 °F 69% 30.07 in 10.0 mi West 9.2 mph - N/A   Mostly Cloudy
11:15 AM 28.4 °F 20.4 °F 19.4 °F 69% 30.07 in 10.0 mi WNW 8.1 mph - N/A   Mostly Cloudy
11:35 AM 28.4 °F 19.1 °F 19.4 °F 69% 30.07 in 10.0 mi WNW 10.4 mph - N/A   Scattered Clouds
11:55 AM 30.2 °F 20.2 °F 19.4 °F 64% 30.07 in 10.0 mi West 12.7 mph 17.3 mph N/A   Clear
12:15 PM 30.2 °F 23.4 °F 21.2 °F 69% 30.06 in 10.0 mi West 6.9 mph - N/A   Partly Cloudy
12:35 PM 32.0 °F 24.2 °F 21.2 °F 64% 30.06 in 10.0 mi WNW 9.2 mph - N/A   Clear
12:55 PM 32.0 °F 25.6 °F 19.4 °F 60% 30.05 in 10.0 mi WNW 6.9 mph - N/A   Clear
1:15 PM 33.8 °F 27.0 °F 21.2 °F 60% 30.04 in 10.0 mi WSW 8.1 mph - N/A   Clear
1:35 PM 33.8 °F 25.8 °F 19.4 °F 56% 30.04 in 10.0 mi West 10.4 mph - N/A   Clear
1:55 PM 35.6 °F 29.9 °F 21.2 °F 56% 30.04 in 10.0 mi WSW 6.9 mph - N/A   Clear
2:15 PM 35.6 °F 29.2 °F 21.2 °F 56% 30.03 in 10.0 mi WSW 8.1 mph - N/A   Clear
2:35 PM 35.6 °F 28.6 °F 23.0 °F 60% 30.03 in 10.0 mi WNW 9.2 mph - N/A   Clear
2:55 PM 35.6 °F 27.5 °F 21.2 °F 56% 30.03 in 10.0 mi West 11.5 mph - N/A   Clear
3:15 PM 37.4 °F 31.4 °F 23.0 °F 56% 30.02 in 10.0 mi NW 8.1 mph - N/A   Clear
3:35 PM 37.4 °F 30.3 °F 21.2 °F 52% 30.02 in 10.0 mi West 10.4 mph - N/A   Clear
3:55 PM 37.4 °F 30.3 °F 21.2 °F 52% 30.02 in 10.0 mi WNW 10.4 mph - N/A   Clear
4:15 PM 37.4 °F 31.4 °F 21.2 °F 52% 30.01 in 10.0 mi NW 8.1 mph - N/A   Clear
4:35 PM 37.4 °F 30.3 °F 21.2 °F 52% 30.01 in 10.0 mi NW 10.4 mph - N/A   Clear
4:55 PM 35.6 °F 28.0 °F 19.4 °F 52% 30.01 in 10.0 mi NW 10.4 mph - N/A   Clear
5:15 PM 35.6 °F 29.2 °F 19.4 °F 52% 30.02 in 10.0 mi NW 8.1 mph - N/A   Clear
5:35 PM 35.6 °F 28.6 °F 19.4 °F 52% 30.02 in 10.0 mi WNW 9.2 mph - N/A   Clear
5:55 PM 33.8 °F 27.0 °F 19.4 °F 56% 30.03 in 10.0 mi NW 8.1 mph - N/A   Clear
6:15 PM 33.8 °F 28.6 °F 19.4 °F 56% 30.03 in 10.0 mi NW 5.8 mph - N/A   Clear
6:35 PM 32.0 °F 27.5 °F 19.4 °F 60% 30.03 in 10.0 mi NW 4.6 mph - N/A   Clear
6:55 PM 32.0 °F 28.7 °F 19.4 °F 60% 30.03 in 10.0 mi NW 3.5 mph - N/A   Clear
7:15 PM 30.2 °F 26.7 °F 19.4 °F 64% 30.04 in 10.0 mi NW 3.5 mph - N/A   Clear
7:35 PM 30.2 °F - 19.4 °F 64% 30.04 in 10.0 mi Calm Calm - N/A   Clear
7:55 PM 30.2 °F - 19.4 °F 64% 30.05 in 10.0 mi Calm Calm - N/A   Clear
8:15 PM 30.2 °F 26.7 °F 19.4 °F 64% 30.05 in 10.0 mi North 3.5 mph - N/A   Clear
8:55 PM 30.2 °F 24.3 °F 21.2 °F 69% 30.06 in 10.0 mi North 5.8 mph - N/A   Clear
9:15 PM 30.2 °F 25.4 °F 21.2 °F 69% 30.07 in 10.0 mi North 4.6 mph - N/A   Scattered Clouds
9:35 PM 28.4 °F 23.3 °F 21.2 °F 74% 30.05 in 10.0 mi NNE 4.6 mph - N/A   Partly Cloudy
9:55 PM 28.4 °F - 21.2 °F 74% 30.07 in 10.0 mi Calm Calm - N/A   Clear
10:15 PM 28.4 °F - 21.2 °F 74% 30.08 in 10.0 mi Calm Calm - N/A   Clear
10:35 PM 28.4 °F - 21.2 °F 74% 30.08 in 10.0 mi Calm Calm - N/A   Clear
10:55 PM 28.4 °F 24.6 °F 21.2 °F 74% 30.08 in 10.0 mi NNW 3.5 mph - N/A   Clear
11:15 PM 28.4 °F 24.6 °F 21.2 °F 74% 30.09 in 10.0 mi NW 3.5 mph - N/A   Clear
11:55 PM 26.6 °F - 21.2 °F 80% 30.08 in 10.0 mi Calm Calm - N/A   Clear